createdAt,value
2023-04-05T00:01:15.264Z,2.33
2023-04-05T00:03:17.950Z,2.33
2023-04-05T00:05:20.068Z,4.00
2023-04-05T00:07:22.679Z,2.67
2023-04-05T00:09:26.090Z,3.33
2023-04-05T00:11:29.125Z,1.33
2023-04-05T00:13:31.728Z,3.67
2023-04-05T00:15:33.281Z,5.00
2023-04-05T00:17:34.972Z,3.33
2023-04-05T00:19:36.797Z,3.67
2023-04-05T00:21:39.664Z,3.00
2023-04-05T00:23:41.448Z,1.33
2023-04-05T00:25:45.159Z,3.00
2023-04-05T00:27:46.710Z,3.00
2023-04-05T00:29:48.539Z,5.33
2023-04-05T00:31:52.030Z,4.33
2023-04-05T00:33:54.153Z,4.33
2023-04-05T00:35:55.813Z,3.67
2023-04-05T00:37:57.783Z,3.67
2023-04-05T00:40:01.197Z,3.00
2023-04-05T00:42:05.499Z,2.67
2023-04-05T00:44:07.331Z,4.33
2023-04-05T00:46:09.412Z,3.00
2023-04-05T00:48:11.855Z,6.00
2023-04-05T00:50:14.258Z,5.00
2023-04-05T00:52:16.211Z,6.00
2023-04-05T00:54:18.727Z,2.67
2023-04-05T00:56:22.361Z,6.00
2023-04-05T00:58:25.766Z,3.00
2023-04-05T01:00:28.422Z,5.00
2023-04-05T01:02:33.259Z,2.00
2023-04-05T01:04:37.197Z,2.00
2023-04-05T01:06:59.924Z,2.00
2023-04-05T01:09:07.909Z,1.67
2023-04-05T01:11:10.399Z,4.00
2023-04-05T01:13:12.003Z,5.00
2023-04-05T01:15:15.016Z,6.00
2023-04-05T01:17:17.288Z,5.00
2023-04-05T01:19:19.662Z,4.33
2023-04-05T01:21:44.597Z,4.33
2023-04-05T01:23:59.156Z,4.00
2023-04-05T01:26:22.523Z,5.33
2023-04-05T01:28:44.614Z,3.33
2023-04-05T01:30:52.324Z,3.67
2023-04-05T01:33:08.969Z,3.33
2023-04-05T01:35:18.211Z,3.33
2023-04-05T01:37:26.143Z,5.00
2023-04-05T01:39:29.201Z,6.00
2023-04-05T01:41:30.955Z,4.67
2023-04-05T01:43:32.584Z,5.00
2023-04-05T01:45:34.592Z,5.00
2023-04-05T01:47:37.543Z,3.00
2023-04-05T01:49:39.198Z,4.67
2023-04-05T01:51:41.052Z,3.00
2023-04-05T01:53:42.721Z,5.00
2023-04-05T01:55:44.454Z,5.00
2023-04-05T01:57:46.314Z,6.00
2023-04-05T01:59:48.189Z,3.00
2023-04-05T02:01:51.530Z,3.00
2023-04-05T02:03:54.744Z,5.67
2023-04-05T02:05:57.770Z,5.00
2023-04-05T02:08:00.000Z,5.00
2023-04-05T02:10:01.752Z,5.67
2023-04-05T02:12:03.899Z,5.00
2023-04-05T02:14:05.590Z,3.00
2023-04-05T02:16:07.236Z,5.33
2023-04-05T02:18:09.105Z,5.33
2023-04-05T02:20:13.510Z,5.33
2023-04-05T02:22:15.142Z,5.00
2023-04-05T02:24:17.001Z,6.00
2023-04-05T02:26:19.017Z,4.33
2023-04-05T02:28:20.710Z,4.33
2023-04-05T02:30:22.265Z,6.67
2023-04-05T02:32:24.788Z,5.00
2023-04-05T02:34:26.431Z,5.33
2023-04-05T02:36:29.848Z,6.00
2023-04-05T02:38:31.664Z,3.67
2023-04-05T02:40:33.383Z,3.00
2023-04-05T02:42:35.005Z,5.00
2023-04-05T02:44:37.255Z,5.00
2023-04-05T02:46:39.155Z,5.00
2023-04-05T02:48:41.003Z,4.33
2023-04-05T02:50:43.128Z,4.33
2023-04-05T02:52:46.626Z,5.67
2023-04-05T02:54:48.231Z,3.00
2023-04-05T02:56:50.022Z,3.00
2023-04-05T02:58:51.833Z,2.67
2023-04-05T03:00:53.779Z,6.67
2023-04-05T03:02:55.725Z,4.67
2023-04-05T03:04:57.394Z,2.00
2023-04-05T03:07:00.531Z,4.67
2023-04-05T03:09:06.360Z,1.00
2023-04-05T03:11:09.420Z,3.33
2023-04-05T03:13:10.973Z,1.00
2023-04-05T03:15:12.788Z,2.00
2023-04-05T03:17:14.673Z,2.33
2023-04-05T03:19:16.741Z,1.00
2023-04-05T03:21:18.608Z,2.00
2023-04-05T03:23:20.194Z,2.00
2023-04-05T03:25:23.252Z,0.67
2023-04-05T03:27:25.696Z,1.33
2023-04-05T03:29:27.515Z,2.00
2023-04-05T03:31:29.438Z,1.00
2023-04-05T03:33:31.362Z,1.00
2023-04-05T03:35:32.948Z,1.00
2023-04-05T03:37:34.912Z,1.00
2023-04-05T03:39:36.617Z,0.00
2023-04-05T03:41:40.850Z,1.00
2023-04-05T03:43:42.442Z,2.00
2023-04-05T03:45:44.244Z,2.00
2023-04-05T03:47:46.229Z,1.00
2023-04-05T03:49:48.095Z,1.00
2023-04-05T03:51:49.872Z,0.33
2023-04-05T03:53:52.073Z,0.00
2023-04-05T03:55:53.989Z,0.33
2023-04-05T03:57:57.165Z,1.00
2023-04-05T03:59:59.088Z,1.00
2023-04-05T04:02:00.988Z,0.00
2023-04-05T04:04:02.839Z,0.00
2023-04-05T04:06:05.690Z,0.00
2023-04-05T04:08:07.881Z,0.00
2023-04-05T04:10:13.526Z,0.00
2023-04-05T04:12:15.153Z,0.00
2023-04-05T04:14:18.421Z,0.00
2023-04-05T04:16:20.327Z,0.00
2023-04-05T04:18:21.928Z,0.00
2023-04-05T04:20:23.485Z,0.00
2023-04-05T04:22:26.557Z,0.00
2023-04-05T04:24:28.572Z,0.00
2023-04-05T04:26:32.566Z,0.00
2023-04-05T04:28:34.171Z,0.00
2023-04-05T04:30:37.711Z,0.00
2023-04-05T04:32:40.248Z,0.00
2023-04-05T04:34:42.124Z,0.00
2023-04-05T04:36:43.746Z,0.00
2023-04-05T04:38:45.357Z,0.00
2023-04-05T04:40:47.194Z,0.00
2023-04-05T04:42:49.314Z,0.00
2023-04-05T04:44:50.990Z,0.00
2023-04-05T04:46:54.048Z,0.00
2023-04-05T04:48:56.011Z,0.00
2023-04-05T04:50:57.667Z,0.00
2023-04-05T04:53:00.492Z,0.00
2023-04-05T04:55:02.395Z,0.33
2023-04-05T04:57:04.357Z,0.00
2023-04-05T04:59:05.973Z,0.00
2023-04-05T05:01:08.452Z,0.00
2023-04-05T05:03:12.354Z,0.00
2023-04-05T05:05:14.475Z,0.00
2023-04-05T05:07:16.306Z,0.00
2023-04-05T05:09:18.263Z,0.00
2023-04-05T05:11:20.357Z,0.00
2023-04-05T05:13:21.969Z,0.00
2023-04-05T05:15:23.829Z,0.33
2023-04-05T05:17:25.618Z,0.00
2023-04-05T05:19:29.070Z,0.00
2023-04-05T05:21:30.884Z,0.00
2023-04-05T05:23:32.647Z,0.00
2023-04-05T05:25:34.659Z,0.00
2023-04-05T05:27:36.528Z,0.00
2023-04-05T05:29:38.098Z,0.00
2023-04-05T05:31:40.212Z,0.00
2023-04-05T05:33:41.828Z,0.00
2023-04-05T05:35:49.496Z,0.00
2023-04-05T05:37:51.105Z,0.00
2023-04-05T05:39:52.858Z,0.00
2023-04-05T05:41:54.669Z,0.00
2023-04-05T05:43:56.518Z,0.00
2023-04-05T05:46:00.773Z,0.00
2023-04-05T05:48:02.674Z,0.00
2023-04-05T05:50:05.199Z,0.00
2023-04-05T05:52:08.298Z,0.00
2023-04-05T05:54:10.122Z,0.00
2023-04-05T05:56:11.698Z,0.00
2023-04-05T05:58:13.286Z,0.00
2023-04-05T06:00:16.496Z,0.00
2023-04-05T06:02:18.082Z,0.00
2023-04-05T06:04:19.852Z,1.00
2023-04-05T06:06:23.086Z,1.00
2023-04-05T06:08:27.210Z,0.33
2023-04-05T06:10:30.628Z,0.00
2023-04-05T06:12:32.398Z,0.00
2023-04-05T06:14:33.974Z,0.00
2023-04-05T06:16:35.841Z,0.00
2023-04-05T06:18:37.359Z,0.00
2023-04-05T06:20:39.556Z,0.00
2023-04-05T06:22:42.127Z,1.00
2023-04-05T06:24:45.391Z,0.00
2023-04-05T06:26:47.235Z,0.00
2023-04-05T06:28:49.522Z,0.00
2023-04-05T06:30:51.090Z,0.00
2023-04-05T06:32:53.319Z,0.00
2023-04-05T06:34:55.174Z,0.00
2023-04-05T06:36:57.064Z,0.00
2023-04-05T06:38:58.740Z,0.00
2023-04-05T06:41:02.046Z,0.00
2023-04-05T06:43:03.594Z,0.00
2023-04-05T06:45:06.522Z,0.00
2023-04-05T06:47:08.140Z,0.00
2023-04-05T06:49:09.745Z,0.67
2023-04-05T06:51:11.461Z,0.00
2023-04-05T06:53:13.781Z,1.00
2023-04-05T06:55:15.857Z,0.00
2023-04-05T06:57:19.284Z,0.00
2023-04-05T06:59:20.932Z,0.00
2023-04-05T07:01:22.539Z,0.00
2023-04-05T07:03:24.332Z,0.00
2023-04-05T07:05:25.900Z,0.00
2023-04-05T07:07:27.888Z,0.00
2023-04-05T07:09:30.925Z,0.00
2023-04-05T07:11:32.501Z,0.00
2023-04-05T07:13:35.546Z,0.00
2023-04-05T07:15:37.412Z,1.00
2023-04-05T07:17:39.124Z,3.00
2023-04-05T07:19:40.772Z,0.00
2023-04-05T07:21:42.804Z,0.00
2023-04-05T07:23:45.137Z,0.00
2023-04-05T07:25:47.092Z,0.00
2023-04-05T07:27:48.846Z,0.00
2023-04-05T07:29:51.753Z,0.00
2023-04-05T07:31:53.624Z,0.00
2023-04-05T07:33:55.236Z,0.00
2023-04-05T07:35:57.161Z,0.00
2023-04-05T07:37:58.960Z,0.00
2023-04-05T07:40:00.800Z,0.00
2023-04-05T07:42:02.607Z,0.00
2023-04-05T07:44:04.393Z,0.00
2023-04-05T07:46:07.698Z,7.67
2023-04-05T07:48:09.365Z,1.00
2023-04-05T07:50:11.603Z,0.00
2023-04-05T07:52:13.622Z,0.00
2023-04-05T07:54:15.449Z,0.00
2023-04-05T07:56:17.510Z,0.00
2023-04-05T07:58:19.651Z,0.00
2023-04-05T08:00:22.229Z,0.00
2023-04-05T08:02:25.898Z,0.00
2023-04-05T08:04:27.490Z,0.00
2023-04-05T08:06:29.140Z,0.00
2023-04-05T08:08:31.126Z,0.00
2023-04-05T08:10:33.723Z,1.00
2023-04-05T08:12:37.037Z,0.67
2023-04-05T08:14:40.384Z,0.33
2023-04-05T08:16:43.199Z,0.00
2023-04-05T08:18:46.202Z,2.00
2023-04-05T08:20:51.341Z,0.00
2023-04-05T08:22:52.952Z,0.00
2023-04-05T08:24:54.815Z,0.00
2023-04-05T08:26:56.455Z,0.00
2023-04-05T08:28:57.967Z,0.00
2023-04-05T08:30:59.758Z,0.00
2023-04-05T08:33:01.612Z,0.67
2023-04-05T08:35:05.391Z,0.00
2023-04-05T08:37:07.109Z,0.33
2023-04-05T08:39:10.151Z,0.00
2023-04-05T08:41:17.345Z,0.00
2023-04-05T08:43:25.869Z,0.00
2023-04-05T08:45:27.718Z,0.00
2023-04-05T08:47:30.028Z,0.00
2023-04-05T08:49:31.947Z,0.00
2023-04-05T08:51:37.223Z,0.00
2023-04-05T08:53:38.848Z,0.00
2023-04-05T08:55:41.276Z,0.00
2023-04-05T08:59:57.822Z,0.00
2023-04-05T09:02:01.678Z,0.00
2023-04-05T09:04:07.737Z,0.00
2023-04-05T09:06:12.814Z,0.00
2023-04-05T09:08:17.226Z,1.00
2023-04-05T09:10:21.020Z,0.00
2023-04-05T09:12:23.384Z,0.00
2023-04-05T09:14:26.525Z,0.00
2023-04-05T09:16:29.867Z,0.00
2023-04-05T09:18:31.751Z,0.00
2023-04-05T09:20:33.435Z,0.00
2023-04-05T09:22:44.070Z,0.00
2023-04-05T09:24:47.418Z,0.00
2023-04-05T09:27:04.099Z,0.00
2023-04-05T09:29:05.884Z,1.00
2023-04-05T09:31:07.770Z,0.00
2023-04-05T09:33:09.407Z,0.00
2023-04-05T09:35:19.249Z,2.75
2023-04-05T09:37:22.792Z,0.00
2023-04-05T09:39:29.311Z,0.00
2023-04-05T09:41:32.761Z,0.00
2023-04-05T09:43:39.311Z,0.00
2023-04-05T09:45:42.454Z,0.00
2023-04-05T09:47:54.673Z,0.00
2023-04-05T09:49:57.645Z,0.00
2023-04-05T09:51:59.488Z,0.00
2023-04-05T09:54:05.838Z,0.00
2023-04-05T09:56:10.076Z,0.00
2023-04-05T09:58:19.003Z,0.00
2023-04-05T10:00:23.132Z,0.00
2023-04-05T10:02:26.120Z,0.00
2023-04-05T10:04:38.835Z,0.00
2023-04-05T10:06:42.023Z,0.00
2023-04-05T10:08:44.769Z,0.00
2023-04-05T10:10:48.029Z,0.00
2023-04-05T10:12:50.905Z,0.50
2023-04-05T10:14:54.107Z,1.00
2023-04-05T10:17:04.048Z,0.25
2023-04-05T10:19:11.876Z,0.25
2023-04-05T10:21:21.054Z,1.00
2023-04-05T10:23:28.032Z,0.00
2023-04-05T10:25:44.189Z,0.00
2023-04-05T10:27:48.710Z,0.00
2023-04-05T10:30:04.727Z,0.00
2023-04-05T10:32:14.016Z,0.00
2023-04-05T10:34:24.837Z,1.00
2023-04-05T10:36:39.402Z,0.25
2023-04-05T10:38:51.721Z,0.00
2023-04-05T10:40:58.294Z,0.00
2023-04-05T10:43:00.196Z,1.00
2023-04-05T10:45:06.946Z,0.00
2023-04-05T10:47:14.310Z,0.00
2023-04-05T10:49:22.163Z,0.50
2023-04-05T10:51:25.249Z,0.00
2023-04-05T10:53:27.633Z,0.00
2023-04-05T10:55:30.364Z,0.00
2023-04-05T10:57:33.035Z,0.00
2023-04-05T10:59:36.467Z,0.00
2023-04-05T11:01:39.924Z,0.00
2023-04-05T11:03:42.611Z,1.00
2023-04-05T11:05:44.210Z,0.00
2023-04-05T11:07:48.046Z,0.00
2023-04-05T11:09:53.315Z,0.00
2023-04-05T11:11:55.166Z,0.00
2023-04-05T11:13:58.444Z,1.00
2023-04-05T11:16:08.994Z,0.25
2023-04-05T11:18:20.687Z,0.00
2023-04-05T11:20:22.710Z,0.00
2023-04-05T11:22:29.973Z,0.00
2023-04-05T11:24:50.972Z,0.25
2023-04-05T11:26:54.582Z,0.00
2023-04-05T11:28:57.973Z,1.00
2023-04-05T11:31:13.793Z,0.00
2023-04-05T11:33:56.657Z,0.00
2023-04-05T11:36:04.275Z,0.25
2023-04-05T11:38:07.379Z,0.00
2023-04-05T11:40:25.188Z,1.00
2023-04-05T11:42:27.214Z,0.00
2023-04-05T11:44:30.043Z,1.00
2023-04-05T11:46:32.432Z,0.25
2023-04-05T11:48:34.310Z,0.00
2023-04-05T11:50:37.393Z,0.50
2023-04-05T11:52:40.959Z,0.00
2023-04-05T11:54:43.412Z,0.75
2023-04-05T11:56:51.285Z,1.00
2023-04-05T11:58:57.896Z,1.75
2023-04-05T12:01:01.727Z,0.00
2023-04-05T12:03:03.865Z,1.25
2023-04-05T12:05:06.561Z,1.00
2023-04-05T12:07:09.348Z,0.00
2023-04-05T12:09:12.835Z,0.75
2023-04-05T12:11:14.701Z,1.00
2023-04-05T12:13:25.762Z,1.00
2023-04-05T12:15:27.415Z,0.00
2023-04-05T12:17:42.591Z,0.25
2023-04-05T12:19:44.590Z,1.00
2023-04-05T12:21:46.747Z,1.00
2023-04-05T12:23:50.386Z,0.50
2023-04-05T12:25:55.945Z,4.00
2023-04-05T12:28:04.556Z,0.00
2023-04-05T12:30:15.212Z,1.00
2023-04-05T12:32:17.211Z,0.00
2023-04-05T12:34:24.645Z,0.00
2023-04-05T12:36:27.864Z,1.75
2023-04-05T12:38:30.073Z,1.00
2023-04-05T12:40:33.868Z,0.00
2023-04-05T12:42:38.069Z,0.00
2023-04-05T12:44:40.099Z,1.00
2023-04-05T12:46:42.927Z,2.00
2023-04-05T12:48:51.636Z,0.00
2023-04-05T12:50:53.557Z,0.00
2023-04-05T12:52:56.977Z,0.50
2023-04-05T12:54:59.108Z,1.00
2023-04-05T12:57:02.408Z,1.00
2023-04-05T12:59:07.260Z,1.00
2023-04-05T13:01:09.097Z,1.00
2023-04-05T13:03:16.182Z,0.75
2023-04-05T13:05:18.103Z,0.00
2023-04-05T13:07:20.007Z,0.00
2023-04-05T13:09:21.736Z,1.00
2023-04-05T13:11:24.252Z,2.00
2023-04-05T13:13:25.899Z,0.00
2023-04-05T13:15:29.177Z,1.00
2023-04-05T13:17:31.201Z,0.00
2023-04-05T13:19:33.058Z,0.50
2023-04-05T13:21:34.841Z,1.00
2023-04-05T13:23:37.678Z,1.50
2023-04-05T13:25:39.816Z,2.00
2023-04-05T13:27:41.609Z,1.00
2023-04-05T13:29:43.553Z,0.00
2023-04-05T13:31:46.784Z,0.75
2023-04-05T13:33:48.392Z,1.00
2023-04-05T13:35:50.261Z,1.00
2023-04-05T13:37:52.387Z,0.25
2023-04-05T13:39:54.259Z,1.00
2023-04-05T13:41:56.265Z,1.00
2023-04-05T13:43:59.764Z,1.00
2023-04-05T13:46:03.105Z,0.00
2023-04-05T13:48:06.581Z,0.00
2023-04-05T13:50:09.303Z,0.50
2023-04-05T13:52:11.338Z,0.25
2023-04-05T13:54:13.200Z,1.00
2023-04-05T13:56:14.968Z,0.00
2023-04-05T13:58:17.118Z,0.50
2023-04-05T14:00:19.423Z,0.50
2023-04-05T14:02:22.931Z,1.00
2023-04-05T14:04:26.365Z,0.00
2023-04-05T14:06:28.218Z,1.00
2023-04-05T14:08:30.288Z,1.00
2023-04-05T14:10:32.076Z,1.00
2023-04-05T14:12:33.917Z,0.00
2023-04-05T14:14:35.446Z,0.00
2023-04-05T14:16:37.303Z,1.25
2023-04-05T14:18:39.179Z,1.00
2023-04-05T14:20:42.968Z,1.00
2023-04-05T14:22:44.712Z,0.00
2023-04-05T14:24:46.351Z,1.00
2023-04-05T14:26:48.205Z,2.00
2023-04-05T14:28:49.856Z,1.00
2023-04-05T14:30:51.951Z,1.00
2023-04-05T14:32:53.589Z,1.00
2023-04-05T14:34:55.424Z,1.00
2023-04-05T14:36:58.502Z,0.75
2023-04-05T14:39:00.435Z,1.00
2023-04-05T14:41:03.765Z,1.00
2023-04-05T14:43:05.438Z,1.00
2023-04-05T14:45:08.929Z,0.00
2023-04-05T14:47:10.542Z,1.00
2023-04-05T14:49:12.422Z,1.00
2023-04-05T14:51:14.168Z,0.00
2023-04-05T14:53:17.478Z,1.00
2023-04-05T14:55:19.528Z,0.00
2023-04-05T14:57:21.322Z,0.00
2023-04-05T14:59:23.343Z,1.00
2023-04-05T15:01:25.696Z,0.00
2023-04-05T15:03:27.561Z,1.00
2023-04-05T15:05:29.438Z,0.50
2023-04-05T15:07:31.684Z,0.00
2023-04-05T15:09:35.350Z,1.00
2023-04-05T15:11:37.654Z,1.00
2023-04-05T15:13:39.374Z,1.25
2023-04-05T15:15:40.945Z,1.00
2023-04-05T15:17:42.477Z,0.75
2023-04-05T15:19:44.393Z,1.00
2023-04-05T15:21:46.260Z,0.25
2023-04-05T15:23:48.073Z,4.00
2023-04-05T15:25:51.461Z,2.00
2023-04-05T15:27:53.488Z,2.00
2023-04-05T15:29:55.080Z,2.00
2023-04-05T15:31:56.722Z,1.75
2023-04-05T15:33:58.754Z,1.00
2023-04-05T15:36:00.547Z,1.25
2023-04-05T15:38:02.659Z,12.50
2023-04-05T15:40:05.267Z,0.25
2023-04-05T15:42:10.733Z,1.75
2023-04-05T15:44:12.658Z,1.00
2023-04-05T15:46:14.511Z,0.75
2023-04-05T15:48:16.364Z,1.50
2023-04-05T15:50:18.194Z,0.00
2023-04-05T15:52:20.084Z,0.00
2023-04-05T15:54:21.914Z,1.00
2023-04-05T15:56:23.723Z,0.75
2023-04-05T15:58:26.780Z,1.00
2023-04-05T16:00:28.699Z,2.00
2023-04-05T16:02:30.410Z,1.00
2023-04-05T16:04:32.524Z,0.25
2023-04-05T16:06:34.612Z,1.00
2023-04-05T16:08:36.476Z,1.00
2023-04-05T16:10:38.045Z,0.00
2023-04-05T16:12:39.693Z,0.00
2023-04-05T16:14:42.769Z,0.75
2023-04-05T16:16:52.968Z,1.00
2023-04-05T16:18:57.347Z,1.00
2023-04-05T16:20:58.954Z,0.00
2023-04-05T16:23:00.790Z,0.00
2023-04-05T16:25:02.680Z,1.50
2023-04-05T16:27:04.557Z,0.75
2023-04-05T16:29:06.153Z,0.00
2023-04-05T16:31:09.090Z,1.00
2023-04-05T16:33:12.217Z,1.00
2023-04-05T16:35:13.897Z,1.00
2023-04-05T16:37:15.683Z,0.00
2023-04-05T16:39:17.231Z,1.00
2023-04-05T16:41:18.880Z,1.50
2023-04-05T16:43:20.438Z,1.00
2023-04-05T16:45:22.259Z,2.00
2023-04-05T16:47:26.100Z,1.75
2023-04-05T16:49:28.157Z,1.00
2023-04-05T16:51:29.781Z,1.75
2023-04-05T16:53:32.197Z,1.00
2023-04-05T16:55:33.904Z,2.00
2023-04-05T16:57:35.960Z,0.25
2023-04-05T16:59:37.664Z,2.00
2023-04-05T17:01:39.647Z,1.75
2023-04-05T17:03:42.801Z,1.75
2023-04-05T17:05:44.577Z,1.00
2023-04-05T17:07:46.443Z,2.00
2023-04-05T17:09:48.339Z,1.25
2023-04-05T17:11:51.302Z,4.25
2023-04-05T17:13:52.856Z,3.25
2023-04-05T17:15:54.937Z,3.00
2023-04-05T17:17:56.857Z,1.00
2023-04-05T17:20:00.207Z,2.00
2023-04-05T17:22:02.409Z,2.00
2023-04-05T17:24:04.518Z,1.00
2023-04-05T17:26:06.761Z,0.75
2023-04-05T17:28:08.778Z,2.00
2023-04-05T17:30:13.918Z,1.00
2023-04-05T17:32:15.803Z,2.00
2023-04-05T17:34:17.616Z,2.00
2023-04-05T17:36:21.116Z,2.00
2023-04-05T17:38:22.956Z,3.67
2023-04-05T17:40:24.579Z,6.00
2023-04-05T17:42:26.211Z,15.00
2023-04-05T17:44:28.380Z,19.00
2023-04-05T17:46:40.234Z,22.33
2023-04-05T17:48:44.594Z,7.33
2023-04-05T17:50:46.618Z,4.67
2023-04-05T17:52:49.467Z,1.75
2023-04-05T17:54:51.022Z,2.00
2023-04-05T17:56:53.111Z,3.00
2023-04-05T17:58:55.024Z,3.00
2023-04-05T18:00:56.781Z,2.25
2023-04-05T18:02:58.483Z,1.25
2023-04-05T18:05:00.322Z,3.75
2023-04-05T18:07:01.930Z,3.00
2023-04-05T18:09:05.349Z,2.00
2023-04-05T18:11:07.166Z,2.75
2023-04-05T18:13:08.814Z,3.00
2023-04-05T18:15:10.974Z,4.00
2023-04-05T18:17:12.572Z,1.50
2023-04-05T18:19:14.594Z,2.00
2023-04-05T18:21:16.188Z,0.00
2023-04-05T18:23:17.813Z,2.00
2023-04-05T18:25:21.553Z,2.00
2023-04-05T18:27:23.333Z,1.75
2023-04-05T18:29:24.975Z,1.00
2023-04-05T18:31:27.179Z,0.67
2023-04-05T18:33:28.802Z,2.00
2023-04-05T18:35:30.812Z,2.67
2023-04-05T18:37:32.513Z,3.00
2023-04-05T18:39:35.819Z,2.00
2023-04-05T18:41:39.388Z,1.67
2023-04-05T18:43:41.160Z,2.33
2023-04-05T18:45:43.020Z,2.67
2023-04-05T18:47:45.102Z,3.00
2023-04-05T18:49:46.722Z,1.00
2023-04-05T18:51:48.581Z,1.00
2023-04-05T18:53:50.422Z,2.00
2023-04-05T18:55:52.790Z,2.00
2023-04-05T18:57:55.986Z,0.00
2023-04-05T18:59:57.728Z,2.00
2023-04-05T19:01:59.536Z,2.67
2023-04-05T19:04:01.263Z,2.33
2023-04-05T19:06:04.788Z,1.00
2023-04-05T19:08:06.355Z,2.00
2023-04-05T19:10:09.226Z,2.33
2023-04-05T19:12:11.021Z,2.00
2023-04-05T19:14:14.163Z,2.00
2023-04-05T19:16:15.811Z,5.67
2023-04-05T19:18:18.291Z,2.00
2023-04-05T19:20:20.131Z,3.00
2023-04-05T19:22:21.918Z,2.00
2023-04-05T19:24:24.312Z,3.00
2023-04-05T19:26:25.901Z,2.00
2023-04-05T19:28:27.669Z,2.33
2023-04-05T19:30:30.684Z,2.00
2023-04-05T19:32:32.220Z,2.00
2023-04-05T19:34:34.204Z,2.00
2023-04-05T19:36:36.907Z,2.00
2023-04-05T19:38:40.185Z,1.33
2023-04-05T19:40:42.555Z,3.00
2023-04-05T19:42:44.826Z,2.00
2023-04-05T19:44:49.729Z,2.33
2023-04-05T19:46:53.755Z,5.00
2023-04-05T19:48:56.114Z,5.00
2023-04-05T19:51:01.056Z,3.67
2023-04-05T19:53:02.993Z,4.33
2023-04-05T19:55:26.262Z,3.67
2023-04-05T19:57:28.493Z,5.00
2023-04-05T19:59:33.018Z,3.00
2023-04-05T20:01:36.417Z,2.00
2023-04-05T20:03:41.070Z,2.00
2023-04-05T20:06:14.131Z,1.00
2023-04-05T20:08:16.299Z,1.00
2023-04-05T20:10:18.109Z,2.00
2023-04-05T20:12:20.057Z,2.00
2023-04-05T20:14:28.162Z,2.00
2023-04-05T20:16:30.828Z,2.67
2023-04-05T20:18:33.254Z,2.00
2023-04-05T20:20:36.746Z,2.00
2023-04-05T20:22:39.160Z,1.67
2023-04-05T20:24:40.971Z,1.00
2023-04-05T20:26:43.283Z,2.00
2023-04-05T20:28:51.145Z,1.00
2023-04-05T20:30:54.545Z,2.00
2023-04-05T20:32:56.201Z,1.00
2023-04-05T20:34:57.734Z,1.00
2023-04-05T20:37:02.158Z,1.33
2023-04-05T20:39:06.063Z,3.00
2023-04-05T20:41:08.935Z,2.00
2023-04-05T20:43:10.799Z,2.00
2023-04-05T20:45:13.189Z,2.00
2023-04-05T20:47:14.945Z,4.33
2023-04-05T20:49:16.790Z,3.00
2023-04-05T20:51:18.839Z,2.00
2023-04-05T20:53:22.025Z,3.67
2023-04-05T20:55:24.275Z,4.67
2023-04-05T20:57:26.285Z,9.33
2023-04-05T20:59:27.953Z,7.67
2023-04-05T21:01:29.797Z,9.00
2023-04-05T21:03:32.873Z,6.00
2023-04-05T21:05:34.532Z,4.00
2023-04-05T21:07:36.085Z,5.33
2023-04-05T21:09:39.684Z,6.00
2023-04-05T21:11:41.269Z,4.33
2023-04-05T21:13:42.871Z,5.00
2023-04-05T21:15:44.619Z,6.33
2023-04-05T21:17:46.260Z,5.33
2023-04-05T21:19:48.189Z,8.00
2023-04-05T21:21:50.324Z,4.67
2023-04-05T21:23:51.797Z,5.67
2023-04-05T21:25:55.482Z,4.67
2023-04-05T21:27:58.167Z,5.00
2023-04-05T21:29:59.990Z,4.33
2023-04-05T21:32:01.529Z,4.00
2023-04-05T21:34:03.085Z,2.00
2023-04-05T21:36:05.241Z,4.33
2023-04-05T21:38:07.116Z,5.00
2023-04-05T21:40:09.666Z,4.67
2023-04-05T21:42:13.019Z,4.67
2023-04-05T21:44:14.927Z,2.00
2023-04-05T21:46:17.467Z,5.00
2023-04-05T21:48:20.640Z,4.00
2023-04-05T21:50:23.289Z,4.00
2023-04-05T21:52:24.905Z,1.00
2023-04-05T21:54:26.450Z,1.33
2023-04-05T21:56:28.046Z,3.33
2023-04-05T21:58:30.923Z,1.00
2023-04-05T22:00:33.227Z,4.33
2023-04-05T22:02:35.048Z,2.00
2023-04-05T22:04:36.869Z,4.00
2023-04-05T22:06:38.429Z,1.00
2023-04-05T22:08:40.305Z,2.67
2023-04-05T22:10:42.314Z,4.33
2023-04-05T22:12:44.133Z,4.00
2023-04-05T22:14:47.537Z,2.00
2023-04-05T22:16:49.199Z,3.33
2023-04-05T22:18:50.943Z,1.00
2023-04-05T22:20:52.585Z,2.00
2023-04-05T22:22:54.933Z,1.67
2023-04-05T22:24:56.538Z,3.33
2023-04-05T22:26:58.555Z,2.00
2023-04-05T22:29:01.740Z,1.33
2023-04-05T22:31:05.022Z,2.00
2023-04-05T22:33:06.870Z,2.00
2023-04-05T22:35:09.557Z,3.33
2023-04-05T22:37:11.425Z,2.00
2023-04-05T22:39:13.064Z,4.00
2023-04-05T22:41:14.636Z,1.67
2023-04-05T22:43:16.263Z,4.67
2023-04-05T22:45:18.283Z,5.33
2023-04-05T22:47:21.395Z,2.00
2023-04-05T22:49:23.672Z,2.00
2023-04-05T22:51:25.490Z,4.00
2023-04-05T22:53:27.092Z,4.00
2023-04-05T22:55:29.145Z,2.67
2023-04-05T22:57:30.702Z,2.67
2023-04-05T22:59:32.377Z,2.00
2023-04-05T23:01:34.445Z,1.33
2023-04-05T23:03:37.438Z,2.00
2023-04-05T23:05:39.046Z,1.00
2023-04-05T23:07:40.948Z,1.67
2023-04-05T23:09:42.809Z,2.67
2023-04-05T23:11:44.370Z,2.00
2023-04-05T23:13:46.000Z,0.67
2023-04-05T23:15:48.027Z,1.00
2023-04-05T23:17:49.810Z,2.00
2023-04-05T23:19:53.301Z,2.00
2023-04-05T23:21:55.106Z,2.67
2023-04-05T23:23:56.968Z,2.00
2023-04-05T23:25:58.822Z,2.00
2023-04-05T23:28:00.635Z,2.00
2023-04-05T23:30:02.508Z,2.00
2023-04-05T23:32:05.162Z,1.67
2023-04-05T23:34:06.860Z,2.00
2023-04-05T23:36:10.438Z,2.00
2023-04-05T23:38:12.152Z,1.00
2023-04-05T23:40:14.115Z,1.00
2023-04-05T23:42:16.243Z,1.00
2023-04-05T23:44:18.114Z,1.00
2023-04-05T23:46:19.736Z,4.00
2023-04-05T23:48:22.102Z,1.00
2023-04-05T23:50:24.032Z,2.00
2023-04-05T23:52:27.125Z,2.00
2023-04-05T23:54:28.695Z,1.00
2023-04-05T23:56:30.300Z,1.00
2023-04-05T23:58:31.902Z,2.00
